Share

Lazaro Cardenas, Mexico

12:13 AM CDT on April 25, 2014 (GMT -0500)
Ixtapa-Zihuatanejo International (MMZH) Elev 20 ft | 17.60 °N, 101.46 °W | Change Station

Current weather conditions updated 3 hours ago

Mostly Cloudy
Mostly Cloudy
82 °F
Feels Like 88 °F
N
0
Wind Variable Wind from North
Sunrise 7:25 AM
Sunset 8:08 PM
Moon Waning Crescent

Today is forecast to be Warmer than yesterday.

Pressure 29.82 in
Visibility 8.0 miles
Clouds Mostly Cloudy 15000 ft
Heat Index 88 °F
Dew Point 73 °F
Humidity 74%
Rainfall 0.00 in
Snow Depth Not available.
UV 0 out of 16
Pollen Not available.
Air Quality Not available.
Flu Activity Not available.
METAR MMZH 250145Z 00000KT 8SM BKN150 28/23 A2982 RMK 8/030 HZY

More Conditions Fewer Conditions

Pressure 29.82 in
Visibility 8.0 miles
Clouds Mostly Cloudy 15000 ft
Heat Index 88 °F
Dew Point 73 °F
Humidity 74%
Rainfall 0.00 in
Snow Depth Not available.
UV 0 out of 16
Pollen Not available.
Air Quality Not available.
Flu Activity Not available.
METAR MMZH 250145Z 00000KT 8SM BKN150 28/23 A2982 RMK 8/030 HZY

More Conditions Fewer Conditions

10-Day Weather Forecast

Almanac

Astronomy

Apr. 25, 2014 Rise Set
Actual Time 7:25 AM CDT 8:08 PM CDT
Civil Twilight 7:03 AM CDT 8:30 PM CDT
Nautical Twilight 6:36 AM CDT 8:57 PM CDT
Astronomical Twilight 6:10 AM CDT 9:23 PM CDT
Moon 4:41 AM CDT 5:02 PM CDT
Length of Visible Light 13h 27m
Length of Day
12h 42m
Tomorrow will be 0m 54s longer.
Waning Crescent, 19% of the Moon is Illuminated
Today
Waning Crescent
Apr 29
New
May 6
First Quarter
May 14
Full
May 21
Last Quarter

Yesterday's Extremes

Country Highs Country Lows

Community

  • Deer in evening light
    Deer in evening light
  • Critter
    Critter
  • Jone Runs Falls
    Jone Runs Falls
  • Easter in Shenandoah National Park
    Easter in Shenandoah National Park
  • Sunset at Apalachicola Bay, Florida
    Sunset at Apalachicola Bay, Florida

WunderPhotos

Upload Photos

1,704,857 photos uploaded!

WunderBlogs® & News

Nearby

Snow Depth

Not available.

Coastal Water Temperatures

Place Temperature
No Stations Reporting

Earthquake Activity

City Distance Mag. Time & Date
No recent earthquake activity has been reported nearby.
Minimum magnitude displayed is 2.5.

Nearby Weather Stations

There are no personal weather stations in this area.

What do you think?

We're not finished. Please let us know what you like, what you don't like, and what you are still missing.